Time;durP1;ratioP1;P1;durP2;ratioP2;P2;SDS_P1;SDS_P2;PMS_P1;PMS_P2;Temp;Humidity;BMP_temperature;BMP_pressure;BME280_temperature;BME280_humidity;BME280_pressure;Samples;Min_cycle;Max_cycle;Signal;HPM_P1;HPM_P2
2023/02/01 00:00:58;;;;;;;4.25;1.75;;;2.40;99.90;;;;;;4959836;29;20224;-85
2023/02/01 00:03:26;;;;;;;9.93;1.67;;;2.50;99.90;;;;;;4962057;28;20521;-85
2023/02/01 00:05:58;;;;;;;8.93;1.38;;;2.50;99.90;;;;;;4957268;28;20221;-81
2023/02/01 00:08:26;;;;;;;3.70;1.10;;;2.50;99.90;;;;;;4959544;28;20285;-84
2023/02/01 00:11:07;;;;;;;1.05;0.93;;;2.50;99.90;;;;;;4959393;28;20223;-84
2023/02/01 00:13:37;;;;;;;1.58;1.10;;;2.50;99.90;;;;;;4968936;28;20201;-81
2023/02/01 00:16:05;;;;;;;1.50;1.35;;;2.50;99.90;;;;;;4944953;29;20245;-82
2023/02/01 00:18:33;;;;;;;3.08;1.63;;;2.40;99.90;;;;;;4960591;28;20787;-83
2023/02/01 00:21:00;;;;;;;5.78;2.13;;;2.50;99.90;;;;;;4969062;28;20256;-81
2023/02/01 00:23:27;;;;;;;3.15;1.40;;;2.50;99.90;;;;;;4960134;28;20220;-83
2023/02/01 00:25:54;;;;;;;2.30;1.20;;;2.60;99.90;;;;;;4962834;28;20389;-81
2023/02/01 00:28:21;;;;;;;3.33;0.77;;;2.60;99.90;;;;;;4966114;28;20362;-83
2023/02/01 00:30:56;;;;;;;4.32;1.65;;;2.60;99.90;;;;;;4958786;28;20505;-85
2023/02/01 00:33:23;;;;;;;3.15;1.33;;;2.60;99.90;;;;;;4958645;28;20217;-86
2023/02/01 00:35:51;;;;;;;6.55;2.00;;;2.60;99.90;;;;;;4975105;28;20289;-86
2023/02/01 00:38:18;;;;;;;2.65;1.50;;;2.60;99.90;;;;;;4958394;29;20373;-84
2023/02/01 00:40:45;;;;;;;3.17;1.30;;;2.60;99.90;;;;;;4959229;28;20513;-83
2023/02/01 00:43:12;;;;;;;4.03;1.35;;;2.60;99.90;;;;;;4967132;28;20524;-81
2023/02/01 00:45:39;;;;;;;2.70;1.70;;;2.70;99.90;;;;;;4961585;28;20554;-83
2023/02/01 00:48:06;;;;;;;2.40;1.52;;;2.60;99.90;;;;;;4959269;28;20445;-85
2023/02/01 00:50:33;;;;;;;1.20;1.10;;;2.50;99.90;;;;;;4955390;28;20209;-82
2023/02/01 00:53:00;;;;;;;3.60;1.52;;;2.60;99.90;;;;;;4968767;28;20501;-82
2023/02/01 00:55:27;;;;;;;2.45;1.40;;;2.70;99.90;;;;;;4968251;28;20502;-83
2023/02/01 00:57:54;;;;;;;1.80;1.50;;;2.70;99.90;;;;;;4963331;28;20505;-83
2023/02/01 01:00:21;;;;;;;3.25;1.48;;;2.70;99.90;;;;;;4971021;28;20214;-81
2023/02/01 01:02:48;;;;;;;2.25;1.58;;;2.70;99.90;;;;;;4964613;28;20214;-81
2023/02/01 01:05:15;;;;;;;5.90;2.90;;;2.70;99.90;;;;;;4966384;28;20226;-83
2023/02/01 01:07:42;;;;;;;4.60;1.65;;;2.80;99.90;;;;;;4972561;28;20219;-80
2023/02/01 01:10:10;;;;;;;3.78;2.03;;;2.80;99.90;;;;;;4972721;28;20234;-82
2023/02/01 01:12:37;;;;;;;6.50;2.50;;;2.80;99.90;;;;;;4978195;28;20208;-82
2023/02/01 01:15:04;;;;;;;4.80;2.53;;;2.90;99.90;;;;;;4972937;28;20206;-83
2023/02/01 01:17:31;;;;;;;5.18;1.95;;;3.00;99.90;;;;;;4983783;28;20257;-83
2023/02/01 01:19:58;;;;;;;4.63;2.30;;;3.10;99.90;;;;;;4967340;28;20210;-81
2023/02/01 01:22:25;;;;;;;4.53;2.15;;;3.10;99.90;;;;;;4961979;28;20212;-82
2023/02/01 01:24:52;;;;;;;2.75;2.53;;;3.00;99.90;;;;;;4962217;28;20226;-83
2023/02/01 01:27:23;;;;;;;2.72;1.83;;;3.00;99.90;;;;;;4963156;28;20260;-79
2023/02/01 01:29:50;;;;;;;3.63;1.48;;;3.00;99.90;;;;;;4974029;28;20252;-80
2023/02/01 01:32:17;;;;;;;3.17;1.73;;;3.20;99.90;;;;;;4969725;28;20209;-80
2023/02/01 01:34:44;;;;;;;2.67;1.77;;;3.20;99.90;;;;;;4970632;28;20249;-82
2023/02/01 01:37:11;;;;;;;4.50;1.50;;;3.20;99.90;;;;;;4973574;28;20580;-81
2023/02/01 01:39:38;;;;;;;2.25;1.73;;;3.00;99.90;;;;;;4973743;28;20212;-81
2023/02/01 01:42:08;;;;;;;3.33;1.50;;;2.70;99.90;;;;;;4966565;28;20270;-82
2023/02/01 01:44:58;;;;;;;2.58;1.02;;;2.70;99.90;;;;;;4970811;28;20279;-81
2023/02/01 01:47:30;;;;;;;4.13;1.70;;;2.50;99.90;;;;;;4966396;28;20213;-81
2023/02/01 01:49:57;;;;;;;1.17;1.00;;;2.40;99.90;;;;;;4965094;28;20420;-81
2023/02/01 01:52:27;;;;;;;6.00;1.48;;;2.40;99.90;;;;;;4976207;28;20214;-83
2023/02/01 01:54:54;;;;;;;3.60;1.90;;;2.30;99.90;;;;;;4967294;28;20268;-83
2023/02/01 01:57:31;;;;;;;6.95;2.65;;;2.30;99.90;;;;;;4962192;28;20561;-81
2023/02/01 02:00:15;;;;;;;7.82;2.08;;;2.30;99.90;;;;;;4963753;28;20205;-85
2023/02/01 02:02:46;;;;;;;9.57;3.00;;;2.40;99.90;;;;;;4969288;28;20204;-82
2023/02/01 02:05:14;;;;;;;4.78;2.50;;;2.30;99.90;;;;;;4967720;28;20400;-85
2023/02/01 02:07:45;;;;;;;5.30;2.55;;;2.40;99.90;;;;;;4972811;28;20209;-85
2023/02/01 02:10:15;;;;;;;7.03;2.67;;;2.20;99.90;;;;;;4965307;28;20212;-88
2023/02/01 02:12:46;;;;;;;3.95;2.88;;;2.40;99.90;;;;;;4975342;28;20388;-90
2023/02/01 02:15:18;;;;;;;6.28;3.15;;;2.40;99.90;;;;;;4981156;28;20206;-86
2023/02/01 02:18:00;;;;;;;7.35;6.65;;;2.60;99.90;;;;;;4981311;28;20271;-89
2023/02/01 02:21:06;;;;;;;6.07;4.00;;;2.80;99.90;;;;;;4976357;28;20208;-88
2023/02/01 02:23:39;;;;;;;8.70;3.60;;;2.80;99.90;;;;;;4978512;28;20255;-88
2023/02/01 02:26:41;;;;;;;4.57;3.05;;;2.90;99.90;;;;;;4973929;28;20198;-88
2023/02/01 02:29:42;;;;;;;10.23;4.28;;;2.90;99.90;;;;;;4979744;28;20227;-87
2023/02/01 02:32:27;;;;;;;14.98;4.40;;;2.90;99.90;;;;;;4972158;28;20207;-89
2023/02/01 02:35:29;;;;;;;8.07;4.70;;;2.90;99.90;;;;;;4966370;28;20190;-83
2023/02/01 02:38:09;;;;;;;6.68;3.58;;;3.00;99.90;;;;;;4982608;28;20262;-83
2023/02/01 02:40:56;;;;;;;13.43;4.13;;;3.00;99.90;;;;;;4975070;28;20264;-84
2023/02/01 03:04:56;;;;;;;9.55;3.33;;;3.10;99.90;;;;;;4960876;29;20214;-82
2023/02/01 03:08:00;;;;;;;10.50;3.30;;;3.10;99.90;;;;;;4968919;28;20227;-84
2023/02/01 03:10:56;;;;;;;5.72;2.85;;;3.20;99.90;;;;;;4961893;28;20220;-82
2023/02/01 03:13:35;;;;;;;3.47;1.95;;;3.10;99.90;;;;;;4954064;28;20218;-83
2023/02/01 03:16:26;;;;;;;8.23;3.40;;;3.10;99.90;;;;;;4967490;28;20244;-82
2023/02/01 03:19:22;;;;;;;5.72;3.00;;;3.10;99.90;;;;;;4963810;28;20209;-83
2023/02/01 03:22:12;;;;;;;19.38;3.47;;;3.00;99.90;;;;;;4948505;28;20250;-82
2023/02/01 03:24:43;;;;;;;10.02;3.58;;;3.00;99.90;;;;;;4961751;28;20453;-84
2023/02/01 03:27:18;;;;;;;6.45;2.70;;;3.00;99.90;;;;;;4959252;29;20517;-83
2023/02/01 03:29:52;;;;;;;11.35;3.67;;;2.90;99.90;;;;;;4970977;28;20235;-82
2023/02/01 03:32:20;;;;;;;12.85;3.70;;;2.90;99.90;;;;;;4971393;28;20520;-84
2023/02/01 03:34:47;;;;;;;12.18;5.13;;;2.80;99.90;;;;;;4967807;28;20253;-82
2023/02/01 03:37:25;;;;;;;7.20;3.75;;;2.80;99.90;;;;;;4962921;28;20246;-82
2023/02/01 03:40:05;;;;;;;4.00;2.65;;;2.80;99.90;;;;;;4970051;28;20497;-82
2023/02/01 03:42:47;;;;;;;7.78;4.63;;;2.90;99.90;;;;;;4962138;28;20571;-82
2023/02/01 03:45:20;;;;;;;9.82;2.65;;;2.80;99.90;;;;;;4959823;28;20212;-84
2023/02/01 03:47:50;;;;;;;9.85;2.95;;;2.80;99.90;;;;;;4972443;28;20214;-83
2023/02/01 03:50:21;;;;;;;9.50;2.42;;;2.80;99.90;;;;;;4958625;29;20522;-84
2023/02/01 03:52:53;;;;;;;10.50;3.60;;;2.80;99.90;;;;;;4959895;28;20205;-83
2023/02/01 03:55:23;;;;;;;4.80;2.65;;;2.90;99.90;;;;;;4961011;28;20517;-82
2023/02/01 03:58:01;;;;;;;9.80;3.63;;;2.80;99.90;;;;;;4958858;29;20245;-82
2023/02/01 04:00:28;;;;;;;10.65;3.65;;;2.90;99.90;;;;;;4948476;28;20511;-85
2023/02/01 04:02:55;;;;;;;4.05;2.45;;;3.00;99.90;;;;;;4978227;28;20213;-84
2023/02/01 04:05:23;;;;;;;9.85;2.95;;;3.10;99.90;;;;;;4965868;28;20245;-86
2023/02/01 04:07:50;;;;;;;4.97;2.10;;;3.00;99.90;;;;;;4967633;28;20217;-81
2023/02/01 04:10:17;;;;;;;9.00;2.72;;;2.90;99.90;;;;;;4965526;28;20432;-82
2023/02/01 04:12:45;;;;;;;5.63;2.05;;;3.00;99.90;;;;;;4963364;28;20197;-84
2023/02/01 04:15:13;;;;;;;9.43;2.58;;;2.70;99.90;;;;;;4971689;28;20213;-84
2023/02/01 04:17:42;;;;;;;10.65;2.65;;;2.80;99.90;;;;;;4961749;28;20407;-84
2023/02/01 04:20:10;;;;;;;8.15;2.97;;;2.80;99.90;;;;;;4967376;28;20210;-84
2023/02/01 04:22:36;;;;;;;6.57;2.13;;;2.90;99.90;;;;;;4960323;28;20213;-85
2023/02/01 04:25:05;;;;;;;10.45;2.88;;;2.80;99.90;;;;;;4968026;28;20498;-85
2023/02/01 04:27:33;;;;;;;9.73;2.25;;;2.70;99.90;;;;;;4964926;28;20210;-85
2023/02/01 04:30:00;;;;;;;12.00;4.05;;;2.60;99.90;;;;;;4970326;28;20209;-85
2023/02/01 04:32:27;;;;;;;5.75;3.35;;;2.80;99.90;;;;;;4969086;28;20327;-86
2023/02/01 04:34:54;;;;;;;7.25;2.60;;;2.70;99.90;;;;;;4972809;28;20216;-81
2023/02/01 04:37:21;;;;;;;10.98;3.17;;;2.60;99.90;;;;;;4964738;28;20271;-86
2023/02/01 04:39:48;;;;;;;15.95;3.30;;;2.70;99.90;;;;;;4966877;28;20214;-83
2023/02/01 04:42:25;;;;;;;9.40;2.70;;;2.70;99.90;;;;;;4965853;28;20374;-83
2023/02/01 04:44:53;;;;;;;12.27;4.55;;;2.70;99.90;;;;;;4972294;28;20247;-84
2023/02/01 04:47:20;;;;;;;10.63;3.67;;;2.90;99.90;;;;;;4963996;28;20270;-83
2023/02/01 04:49:48;;;;;;;10.98;2.97;;;2.90;99.90;;;;;;4961473;28;20205;-82
2023/02/01 04:52:15;;;;;;;5.53;2.75;;;3.10;99.90;;;;;;4970328;28;20747;-83
2023/02/01 04:54:42;;;;;;;5.82;3.50;;;3.30;99.90;;;;;;4964593;28;20213;-83
2023/02/01 04:57:09;;;;;;;7.05;2.70;;;3.40;99.90;;;;;;4964269;28;20504;-83
2023/02/01 04:59:36;;;;;;;11.93;3.80;;;3.40;99.90;;;;;;4970356;28;20213;-81
2023/02/01 05:02:03;;;;;;;8.25;3.35;;;3.50;99.90;;;;;;4961468;28;20210;-83
2023/02/01 05:04:30;;;;;;;6.35;3.00;;;3.60;99.90;;;;;;4963941;28;20538;-82
2023/02/01 05:06:57;;;;;;;13.70;4.53;;;3.70;99.90;;;;;;4971110;28;20213;-84
2023/02/01 05:09:24;;;;;;;6.80;2.47;;;3.60;99.90;;;;;;4972529;28;20261;-82
2023/02/01 05:14:37;;;;;;;9.55;2.40;;;3.80;99.90;;;;;;4970005;28;20217;-87
2023/02/01 05:17:04;;;;;;;8.68;3.00;;;3.80;99.90;;;;;;4963529;28;20233;-82
2023/02/01 05:19:30;;;;;;;9.30;3.38;;;3.80;99.90;;;;;;4961578;28;20529;-86
2023/02/01 05:21:57;;;;;;;5.20;3.30;;;3.80;99.90;;;;;;4965110;28;20206;-81
2023/02/01 05:24:26;;;;;;;10.80;3.60;;;3.90;99.90;;;;;;4963340;28;20217;-84
2023/02/01 05:26:53;;;;;;;17.13;2.85;;;4.00;99.90;;;;;;4971053;28;20212;-83
2023/02/01 05:29:21;;;;;;;5.88;3.55;;;3.90;99.90;;;;;;4963595;28;20221;-86
2023/02/01 05:31:48;;;;;;;6.88;2.47;;;4.00;99.90;;;;;;4960100;28;20201;-82
2023/02/01 05:34:16;;;;;;;3.88;2.10;;;4.00;99.90;;;;;;4968792;28;20206;-83
2023/02/01 05:36:43;;;;;;;8.05;3.03;;;4.00;99.90;;;;;;4974315;28;20236;-83
2023/02/01 05:39:12;;;;;;;7.88;2.15;;;3.90;99.90;;;;;;4978961;28;20720;-83
2023/02/01 05:41:39;;;;;;;12.00;2.63;;;3.80;99.90;;;;;;4973174;28;20411;-85
2023/02/01 05:44:09;;;;;;;7.78;3.38;;;3.70;99.90;;;;;;4974184;28;20232;-85
2023/02/01 05:46:37;;;;;;;3.50;1.95;;;3.70;99.90;;;;;;4973975;28;20221;-84
2023/02/01 05:49:04;;;;;;;7.07;2.78;;;3.70;99.90;;;;;;4970449;28;20205;-85
2023/02/01 05:51:31;;;;;;;5.15;2.80;;;3.70;99.90;;;;;;4970123;28;20540;-83
2023/02/01 05:53:58;;;;;;;6.50;3.17;;;3.80;99.90;;;;;;4967751;28;20394;-86
2023/02/01 05:56:25;;;;;;;13.77;2.53;;;3.80;99.90;;;;;;4964930;28;20429;-86
2023/02/01 05:58:53;;;;;;;2.45;2.08;;;3.80;99.90;;;;;;4963963;28;20209;-83
2023/02/01 06:01:20;;;;;;;4.78;2.35;;;3.90;99.90;;;;;;4963442;28;20433;-86
2023/02/01 06:03:47;;;;;;;9.02;2.25;;;4.00;99.90;;;;;;4964957;28;20201;-85
2023/02/01 06:06:15;;;;;;;6.18;1.80;;;3.90;99.90;;;;;;4980149;28;20214;-84
2023/02/01 06:08:46;;;;;;;4.53;2.10;;;4.10;99.90;;;;;;4974529;28;20206;-86
2023/02/01 06:11:13;;;;;;;5.80;2.50;;;4.20;99.90;;;;;;4978611;28;20209;-84
2023/02/01 06:13:57;;;;;;;6.13;2.55;;;4.20;99.90;;;;;;4964073;29;20214;-87
2023/02/01 06:16:24;;;;;;;8.00;2.15;;;4.20;99.90;;;;;;4969386;28;20205;-86
2023/02/01 06:18:52;;;;;;;4.93;2.67;;;4.10;99.90;;;;;;4973976;28;20249;-88
2023/02/01 06:21:23;;;;;;;5.95;2.35;;;4.10;99.90;;;;;;4979147;28;20209;-88
2023/02/01 06:23:53;;;;;;;17.05;3.05;;;4.00;99.90;;;;;;4978202;28;20265;-89
2023/02/01 06:26:22;;;;;;;3.75;2.17;;;4.10;99.90;;;;;;4970992;28;20210;-88
2023/02/01 06:28:49;;;;;;;7.38;2.20;;;4.10;99.90;;;;;;4967344;28;20564;-83
2023/02/01 06:31:17;;;;;;;6.78;3.28;;;4.20;99.90;;;;;;4965452;29;20202;-83
2023/02/01 06:33:45;;;;;;;10.77;2.58;;;4.20;99.90;;;;;;4973723;28;20218;-84
2023/02/01 06:36:13;;;;;;;6.90;2.50;;;4.20;99.90;;;;;;4967446;28;20278;-85
2023/02/01 06:38:40;;;;;;;5.43;2.13;;;4.20;99.90;;;;;;4981656;28;20233;-85
2023/02/01 06:41:09;;;;;;;6.60;2.70;;;4.30;99.90;;;;;;4975099;28;20214;-87
2023/02/01 06:43:37;;;;;;;9.27;2.72;;;4.40;99.90;;;;;;4962533;29;20203;-83
2023/02/01 06:46:06;;;;;;;3.33;1.73;;;4.50;99.90;;;;;;4964780;28;20206;-87
2023/02/01 06:48:34;;;;;;;7.75;2.63;;;4.50;99.90;;;;;;4972197;28;20258;-87
2023/02/01 06:51:02;;;;;;;3.53;1.35;;;4.60;99.90;;;;;;4984326;28;20536;-84
2023/02/01 06:53:29;;;;;;;4.63;3.00;;;4.60;99.90;;;;;;4974990;28;20206;-87
2023/02/01 06:56:02;;;;;;;4.22;2.20;;;4.60;99.90;;;;;;4967661;28;20201;-84
2023/02/01 06:58:32;;;;;;;4.72;2.05;;;4.50;99.90;;;;;;4962165;29;20226;-85
2023/02/01 07:01:08;;;;;;;9.90;2.35;;;4.60;99.90;;;;;;4974092;28;20210;-85
2023/02/01 07:03:36;;;;;;;6.22;3.38;;;4.60;99.90;;;;;;4966207;28;20239;-83
2023/02/01 07:06:04;;;;;;;5.10;2.05;;;4.60;99.90;;;;;;4976228;28;20211;-84
2023/02/01 07:08:34;;;;;;;2.30;2.10;;;4.60;99.90;;;;;;4966440;28;20195;-88
2023/02/01 07:11:09;;;;;;;10.77;3.15;;;4.60;99.90;;;;;;4976090;28;20199;-85
2023/02/01 07:13:38;;;;;;;5.45;1.90;;;4.60;99.90;;;;;;4961009;28;20198;-86
2023/02/01 07:16:08;;;;;;;4.85;3.45;;;4.60;99.90;;;;;;4965040;28;20203;-84
2023/02/01 07:18:35;;;;;;;8.48;3.03;;;4.70;99.90;;;;;;4972284;28;20234;-84
2023/02/01 07:21:03;;;;;;;6.88;2.67;;;4.70;99.90;;;;;;4965692;28;20190;-86
2023/02/01 07:23:32;;;;;;;6.72;2.50;;;4.70;99.90;;;;;;4983202;28;20312;-86
2023/02/01 07:26:01;;;;;;;4.15;2.10;;;4.70;99.90;;;;;;4979809;28;20268;-89
2023/02/01 07:28:31;;;;;;;10.95;2.60;;;4.80;99.90;;;;;;4977063;28;20206;-86
2023/02/01 07:31:10;;;;;;;4.95;1.83;;;4.80;99.90;;;;;;4974523;28;20207;-89
2023/02/01 07:33:39;;;;;;;10.48;4.93;;;4.80;99.90;;;;;;4987224;28;20210;-87
2023/02/01 07:36:12;;;;;;;6.85;3.08;;;4.80;99.90;;;;;;4986205;28;20202;-89
2023/02/01 07:38:39;;;;;;;10.18;3.22;;;4.80;99.90;;;;;;4974142;28;20215;-84
2023/02/01 07:41:07;;;;;;;9.80;3.55;;;4.80;99.90;;;;;;4967147;28;20235;-83
2023/02/01 07:43:35;;;;;;;6.25;2.60;;;4.70;99.90;;;;;;4965856;28;20281;-85
2023/02/01 07:46:07;;;;;;;6.00;2.50;;;4.90;99.90;;;;;;4970328;28;20386;-83
2023/02/01 07:48:35;;;;;;;8.07;2.55;;;4.90;99.90;;;;;;4969915;28;20210;-85
2023/02/01 07:51:01;;;;;;;7.18;3.25;;;5.00;99.90;;;;;;4965644;28;20218;-85
2023/02/01 07:53:30;;;;;;;5.80;2.75;;;5.00;99.90;;;;;;4967307;28;20211;-84
2023/02/01 07:55:57;;;;;;;5.82;2.88;;;5.10;99.90;;;;;;4970378;28;20218;-85
2023/02/01 07:58:26;;;;;;;16.00;3.53;;;5.20;99.90;;;;;;4973630;28;20234;-86
2023/02/01 08:03:42;;;;;;;5.43;2.10;;;5.30;99.90;;;;;;4961935;28;20215;-85
2023/02/01 08:06:09;;;;;;;4.30;2.28;;;5.30;99.90;;;;;;4985724;28;20215;-85
2023/02/01 08:08:37;;;;;;;12.82;3.00;;;5.20;99.90;;;;;;4973158;28;20366;-87
2023/02/01 08:11:06;;;;;;;7.22;4.03;;;5.30;99.90;;;;;;4971229;28;20202;-84
2023/02/01 08:13:35;;;;;;;4.47;2.60;;;5.30;99.90;;;;;;4960953;28;20215;-86
2023/02/01 08:16:07;;;;;;;15.70;3.97;;;5.40;99.90;;;;;;4962369;28;20221;-86
2023/02/01 08:18:36;;;;;;;9.73;2.45;;;5.30;99.90;;;;;;4963542;28;20243;-87
2023/02/01 08:21:12;;;;;;;3.97;2.58;;;5.30;99.90;;;;;;4965124;28;20211;-85
2023/02/01 08:23:40;;;;;;;5.68;2.85;;;5.40;99.90;;;;;;4964743;28;20225;-89
2023/02/01 08:26:10;;;;;;;5.30;2.17;;;5.40;99.90;;;;;;4965584;28;20253;-88
2023/02/01 08:28:38;;;;;;;5.07;2.47;;;5.50;99.90;;;;;;4963697;28;20221;-89
2023/02/01 08:31:07;;;;;;;9.30;2.63;;;5.50;99.90;;;;;;4966461;28;20391;-86
2023/02/01 08:33:36;;;;;;;5.40;2.70;;;5.60;99.90;;;;;;4973193;28;20233;-86
2023/02/01 08:36:05;;;;;;;11.05;3.05;;;5.80;99.90;;;;;;4964378;28;20211;-88
2023/02/01 08:38:32;;;;;;;8.20;2.92;;;5.90;99.90;;;;;;4965057;28;20241;-87
2023/02/01 08:41:04;;;;;;;6.22;2.95;;;6.00;99.90;;;;;;4966490;28;20207;-86
2023/02/01 08:43:31;;;;;;;4.07;1.98;;;5.90;99.90;;;;;;4970289;28;20495;-85
2023/02/01 08:45:59;;;;;;;6.40;3.00;;;5.80;99.90;;;;;;4966314;28;20194;-86
2023/02/01 08:48:26;;;;;;;12.55;3.67;;;5.80;99.90;;;;;;4968225;28;20222;-86
2023/02/01 08:50:53;;;;;;;2.90;1.85;;;5.90;99.90;;;;;;4965895;28;20566;-86
2023/02/01 08:53:22;;;;;;;5.20;2.78;;;5.80;99.90;;;;;;4959975;28;20214;-87
2023/02/01 08:55:49;;;;;;;5.35;4.03;;;5.90;99.90;;;;;;4962716;28;20207;-88
2023/02/01 08:58:16;;;;;;;6.25;2.00;;;5.60;99.90;;;;;;4962385;28;20227;-85
2023/02/01 09:00:47;;;;;;;5.00;2.22;;;5.60;99.90;;;;;;4964176;28;20215;-90
2023/02/01 09:03:16;;;;;;;8.95;2.45;;;5.50;99.90;;;;;;4975452;28;20469;-86
2023/02/01 09:05:47;;;;;;;3.65;2.75;;;5.50;99.90;;;;;;4973731;28;20225;-85
2023/02/01 09:08:16;;;;;;;5.20;4.18;;;5.60;99.90;;;;;;4972701;28;20538;-85
2023/02/01 09:10:43;;;;;;;6.43;3.33;;;5.30;99.90;;;;;;4977041;28;20214;-85
2023/02/01 09:13:10;;;;;;;5.13;2.83;;;5.40;99.90;;;;;;4975247;28;20210;-88
2023/02/01 09:15:40;;;;;;;4.72;2.42;;;5.20;99.90;;;;;;4971391;28;20343;-86
2023/02/01 09:18:07;;;;;;;7.68;2.35;;;5.20;99.90;;;;;;4966663;29;20310;-86
2023/02/01 09:20:39;;;;;;;7.43;2.92;;;5.40;99.90;;;;;;4965020;29;20211;-86
2023/02/01 09:23:07;;;;;;;3.10;2.22;;;5.50;99.90;;;;;;4972467;28;20210;-86
2023/02/01 09:25:39;;;;;;;6.07;2.55;;;5.60;99.90;;;;;;4970954;28;20449;-88
2023/02/01 09:28:07;;;;;;;4.25;2.80;;;5.60;99.90;;;;;;4965989;28;20218;-87
2023/02/01 09:30:38;;;;;;;5.75;2.97;;;5.70;99.90;;;;;;4968951;28;20416;-86
2023/02/01 09:33:05;;;;;;;8.93;1.95;;;5.80;99.90;;;;;;4981247;28;20241;-87
2023/02/01 09:35:32;;;;;;;4.50;1.85;;;6.00;99.90;;;;;;4969652;28;20421;-90
2023/02/01 09:37:59;;;;;;;4.45;2.00;;;6.00;99.90;;;;;;4975300;28;20252;-86
2023/02/01 09:40:28;;;;;;;8.23;2.05;;;6.10;99.90;;;;;;4965319;28;20250;-87
2023/02/01 09:43:10;;;;;;;5.03;2.38;;;6.20;99.90;;;;;;4964046;28;20367;-87
2023/02/01 09:45:40;;;;;;;4.15;2.53;;;6.30;99.90;;;;;;4964819;28;20209;-85
2023/02/01 09:48:18;;;;;;;4.05;2.50;;;6.50;99.90;;;;;;4956505;28;20434;-87
2023/02/01 09:50:54;;;;;;;2.28;1.75;;;6.40;99.90;;;;;;4974966;28;20202;-86
2023/02/01 09:53:30;;;;;;;1.90;1.60;;;6.50;99.90;;;;;;4964823;28;20573;-87
2023/02/01 09:56:06;;;;;;;3.65;2.30;;;6.50;99.90;;;;;;4962762;28;20210;-88
2023/02/01 09:58:37;;;;;;;2.50;1.48;;;6.60;99.90;;;;;;4963773;28;20230;-86
2023/02/01 10:01:12;;;;;;;3.90;1.83;;;6.80;99.90;;;;;;4969330;28;20233;-87
2023/02/01 10:03:40;;;;;;;8.27;2.25;;;6.70;99.90;;;;;;4966265;28;20350;-85
2023/02/01 10:06:44;;;;;;;7.50;2.25;;;6.70;99.90;;;;;;4964216;29;20211;-85
2023/02/01 10:09:38;;;;;;;3.15;1.58;;;6.80;99.90;;;;;;4945447;29;20223;-85
2023/02/01 10:12:34;;;;;;;5.45;2.35;;;6.80;99.90;;;;;;4962940;29;20397;-86
2023/02/01 10:15:25;;;;;;;4.30;2.25;;;6.80;99.90;;;;;;4942054;28;20207;-86
2023/02/01 10:18:18;;;;;;;7.85;2.22;;;6.90;99.90;;;;;;4956175;29;20546;-85
2023/02/01 10:21:09;;;;;;;3.78;1.92;;;7.00;99.90;;;;;;4936637;28;20213;-89
2023/02/01 10:24:02;;;;;;;6.78;2.00;;;6.90;99.90;;;;;;4964068;28;20207;-86
2023/02/01 10:26:47;;;;;;;7.72;3.20;;;6.90;99.90;;;;;;4975832;28;20382;-87
2023/02/01 10:29:21;;;;;;;3.25;1.95;;;7.00;99.90;;;;;;4980236;28;20270;-86
2023/02/01 10:31:48;;;;;;;6.07;2.50;;;7.00;99.90;;;;;;4961491;29;20522;-86
2023/02/01 10:34:24;;;;;;;4.97;2.30;;;7.00;99.90;;;;;;4969469;28;20254;-87
2023/02/01 10:36:59;;;;;;;3.00;2.00;;;7.10;99.90;;;;;;4963010;28;20223;-85
2023/02/01 10:39:27;;;;;;;4.25;2.10;;;7.30;99.90;;;;;;4976059;28;20260;-88
2023/02/01 10:41:56;;;;;;;6.35;2.80;;;7.20;99.90;;;;;;4969680;28;20208;-86
2023/02/01 10:44:27;;;;;;;2.42;1.85;;;7.20;99.90;;;;;;4975286;28;20254;-85
2023/02/01 10:46:55;;;;;;;6.53;2.45;;;7.20;99.90;;;;;;4972420;28;20219;-85
2023/02/01 10:49:40;;;;;;;5.20;2.25;;;7.30;99.90;;;;;;4963784;29;20308;-84
2023/02/01 10:52:19;;;;;;;4.90;2.30;;;7.50;99.90;;;;;;4968949;28;20520;-85
2023/02/01 10:54:46;;;;;;;5.80;2.75;;;7.70;99.90;;;;;;4964785;28;20212;-85
2023/02/01 10:57:25;;;;;;;3.72;2.25;;;7.80;99.90;;;;;;4966359;28;20531;-86
2023/02/01 10:59:53;;;;;;;5.35;2.53;;;8.10;99.90;;;;;;4966804;28;20221;-85
2023/02/01 11:02:40;;;;;;;5.10;2.50;;;8.10;99.90;;;;;;4967533;29;20280;-86
2023/02/01 11:05:11;;;;;;;6.05;3.35;;;7.50;99.90;;;;;;4971346;28;20213;-85
2023/02/01 11:07:45;;;;;;;11.15;2.53;;;7.20;99.90;;;;;;4963141;28;20686;-86
2023/02/01 11:10:40;;;;;;;2.92;2.05;;;7.10;99.90;;;;;;4969874;28;20385;-84
2023/02/01 11:13:16;;;;;;;6.43;1.95;;;6.80;99.90;;;;;;4966637;28;20514;-87
2023/02/01 11:15:54;;;;;;;7.20;2.60;;;6.80;99.90;;;;;;4963148;29;20211;-85
2023/02/01 11:18:29;;;;;;;8.02;2.40;;;6.60;99.90;;;;;;4967756;28;20426;-85
2023/02/01 11:20:57;;;;;;;6.57;2.40;;;6.40;99.90;;;;;;4958542;28;20209;-84
2023/02/01 11:23:28;;;;;;;4.40;3.03;;;6.30;99.90;;;;;;4966289;28;20282;-85
2023/02/01 11:25:58;;;;;;;4.57;2.85;;;6.10;99.90;;;;;;4976287;28;20319;-88
2023/02/01 11:28:34;;;;;;;7.00;3.25;;;6.20;99.90;;;;;;4974256;28;20201;-87
2023/02/01 11:31:09;;;;;;;2.10;1.90;;;6.20;99.90;;;;;;4971095;28;20458;-85
2023/02/01 11:33:47;;;;;;;2.42;2.22;;;6.10;99.90;;;;;;4969716;28;20214;-85
2023/02/01 11:36:31;;;;;;;1.83;1.70;;;6.10;99.90;;;;;;4965478;28;20210;-85
2023/02/01 11:39:13;;;;;;;6.47;2.85;;;6.10;99.90;;;;;;4974906;28;20237;-83
2023/02/01 11:42:00;;;;;;;5.32;2.72;;;6.10;99.90;;;;;;4967271;28;20211;-87
2023/02/01 11:44:34;;;;;;;7.80;2.40;;;6.10;99.90;;;;;;4962088;28;20215;-86
2023/02/01 11:47:30;;;;;;;6.68;2.75;;;6.10;99.90;;;;;;4962290;28;20202;-86
2023/02/01 11:50:04;;;;;;;3.40;2.70;;;6.30;99.90;;;;;;4962217;28;20250;-82
2023/02/01 11:52:43;;;;;;;4.43;2.53;;;6.40;99.90;;;;;;4969306;28;20229;-83
2023/02/01 11:55:53;;;;;;;2.90;2.20;;;6.20;99.90;;;;;;4964529;28;20510;-84
2023/02/01 11:58:48;;;;;;;4.95;2.05;;;5.90;99.90;;;;;;4951642;28;20245;-85
2023/02/01 12:01:31;;;;;;;7.75;2.70;;;5.70;99.90;;;;;;4977185;28;20182;-84
2023/02/01 12:04:24;;;;;;;6.22;3.40;;;5.50;99.90;;;;;;4969439;28;20207;-81
2023/02/01 12:06:55;;;;;;;3.97;2.50;;;5.40;99.90;;;;;;4957281;28;20206;-83
2023/02/01 12:09:39;;;;;;;2.58;2.30;;;5.30;99.90;;;;;;4957267;28;20250;-86
2023/02/01 12:12:28;;;;;;;3.67;2.10;;;5.30;99.90;;;;;;4963920;28;20198;-84
2023/02/01 12:15:22;;;;;;;4.60;2.35;;;5.30;99.90;;;;;;4968297;28;20209;-85
2023/02/01 12:18:04;;;;;;;3.60;3.15;;;5.30;99.90;;;;;;4964616;29;20225;-83
2023/02/01 12:20:41;;;;;;;7.95;2.97;;;5.30;99.90;;;;;;4967512;28;20487;-84
2023/02/01 12:23:49;;;;;;;2.40;1.80;;;5.40;99.90;;;;;;4965174;28;20218;-83
2023/02/01 12:26:42;;;;;;;2.28;2.08;;;5.50;99.90;;;;;;4963969;28;20214;-84
2023/02/01 12:29:22;;;;;;;4.63;2.55;;;5.50;99.90;;;;;;4946563;29;20274;-86
2023/02/01 12:32:17;;;;;;;2.20;2.00;;;5.60;99.90;;;;;;4966998;29;20198;-85
2023/02/01 12:35:12;;;;;;;4.07;2.20;;;5.50;99.90;;;;;;4955206;29;20279;-84
2023/02/01 12:38:05;;;;;;;6.13;2.47;;;5.40;99.90;;;;;;4966758;28;20221;-81
2023/02/01 12:41:10;;;;;;;4.13;2.30;;;5.30;99.90;;;;;;4964124;28;20278;-84
2023/02/01 12:43:54;;;;;;;4.90;2.75;;;5.20;99.90;;;;;;4957464;28;20245;-83
2023/02/01 12:46:53;;;;;;;4.85;1.90;;;5.20;99.90;;;;;;4965805;28;20237;-84
2023/02/01 12:50:12;;;;;;;2.05;1.85;;;5.10;99.90;;;;;;4950325;29;20202;-84
2023/02/01 12:52:48;;;;;;;5.43;2.25;;;5.20;99.90;;;;;;4970057;28;20254;-84
2023/02/01 12:55:25;;;;;;;2.90;2.65;;;5.30;99.90;;;;;;4970774;28;20214;-83
2023/02/01 12:58:11;;;;;;;2.03;1.92;;;5.40;99.90;;;;;;4972515;28;20201;-83
2023/02/01 13:00:44;;;;;;;3.42;2.17;;;5.60;99.90;;;;;;4975954;28;20298;-83
2023/02/01 13:04:12;;;;;;;3.72;2.42;;;5.70;99.90;;;;;;4978341;28;20723;-81
2023/02/01 13:07:14;;;;;;;3.45;2.25;;;5.80;99.90;;;;;;4906794;29;20219;-83
2023/02/01 13:09:52;;;;;;;3.38;2.13;;;5.80;99.90;;;;;;4964910;28;20238;-85
2023/02/01 13:12:42;;;;;;;2.40;2.20;;;6.00;99.90;;;;;;4975866;28;20206;-83
2023/02/01 13:15:25;;;;;;;6.57;3.10;;;6.20;99.90;;;;;;4978342;28;20258;-82
2023/02/01 13:18:00;;;;;;;2.92;2.70;;;6.30;99.90;;;;;;4961758;29;20234;-82
2023/02/01 13:20:34;;;;;;;3.95;2.90;;;6.30;99.90;;;;;;4958101;29;20234;-84
2023/02/01 13:23:29;;;;;;;2.85;1.95;;;6.30;99.90;;;;;;4967047;29;20221;-82
2023/02/01 13:25:58;;;;;;;5.85;2.92;;;6.20;99.90;;;;;;4962849;28;20403;-82
2023/02/01 13:28:32;;;;;;;4.82;2.50;;;6.00;99.90;;;;;;4981357;28;20265;-82
2023/02/01 13:31:05;;;;;;;4.85;2.30;;;5.90;99.90;;;;;;4967247;29;20203;-83
2023/02/01 13:33:57;;;;;;;3.40;2.50;;;6.00;99.90;;;;;;4967334;28;20285;-85
2023/02/01 13:36:50;;;;;;;2.95;1.80;;;6.20;99.90;;;;;;4967509;28;20207;-86
2023/02/01 13:39:49;;;;;;;3.13;1.67;;;6.60;99.90;;;;;;4978561;29;20250;-84
2023/02/01 13:42:28;;;;;;;1.65;1.55;;;6.40;99.90;;;;;;4978897;28;20199;-84
2023/02/01 13:45:01;;;;;;;4.43;2.00;;;6.20;99.90;;;;;;4969326;29;20254;-83
2023/02/01 13:47:32;;;;;;;1.63;1.40;;;6.00;99.90;;;;;;4967442;28;20187;-83
2023/02/01 13:50:19;;;;;;;3.75;2.05;;;6.00;99.90;;;;;;4979293;28;20256;-82
2023/02/01 13:53:00;;;;;;;3.67;2.58;;;5.90;99.90;;;;;;4985840;28;20538;-84
2023/02/01 13:55:34;;;;;;;3.50;2.08;;;5.80;99.90;;;;;;4969003;28;20214;-84
2023/02/01 13:58:15;;;;;;;15.93;2.63;;;5.70;99.90;;;;;;4975859;28;20213;-84